sensor_id;sensor_type;location;lat;lon;timestamp;P1;durP1;ratioP1;P2;durP2;ratioP2
10144;SDS011;5113;41.822;23.564;2024-02-26T00:00:00;31.07;;;13.57;;
10144;SDS011;5113;41.822;23.564;2024-02-26T00:03:07;75.30;;;29.17;;
10144;SDS011;5113;41.822;23.564;2024-02-26T00:06:14;57.63;;;23.27;;
10144;SDS011;5113;41.822;23.564;2024-02-26T00:09:20;31.80;;;15.80;;
10144;SDS011;5113;41.822;23.564;2024-02-26T00:12:27;19.20;;;12.00;;
10144;SDS011;5113;41.822;23.564;2024-02-26T00:15:35;16.10;;;9.60;;
10144;SDS011;5113;41.822;23.564;2024-02-26T00:18:42;14.30;;;8.53;;
10144;SDS011;5113;41.822;23.564;2024-02-26T00:21:54;14.33;;;8.80;;
10144;SDS011;5113;41.822;23.564;2024-02-26T00:25:01;12.53;;;8.00;;
10144;SDS011;5113;41.822;23.564;2024-02-26T00:28:08;13.13;;;8.57;;
10144;SDS011;5113;41.822;23.564;2024-02-26T00:31:16;11.03;;;7.17;;
10144;SDS011;5113;41.822;23.564;2024-02-26T00:34:22;10.63;;;6.43;;
10144;SDS011;5113;41.822;23.564;2024-02-26T00:37:29;8.40;;;6.57;;
10144;SDS011;5113;41.822;23.564;2024-02-26T00:40:36;9.87;;;6.53;;
10144;SDS011;5113;41.822;23.564;2024-02-26T00:43:42;10.13;;;7.10;;
10144;SDS011;5113;41.822;23.564;2024-02-26T00:46:50;16.03;;;8.07;;
10144;SDS011;5113;41.822;23.564;2024-02-26T00:49:58;9.40;;;7.43;;
10144;SDS011;5113;41.822;23.564;2024-02-26T00:53:05;12.27;;;7.20;;
10144;SDS011;5113;41.822;23.564;2024-02-26T00:56:13;10.63;;;8.30;;
10144;SDS011;5113;41.822;23.564;2024-02-26T00:59:20;36.10;;;16.33;;
10144;SDS011;5113;41.822;23.564;2024-02-26T01:02:28;18.40;;;9.03;;
10144;SDS011;5113;41.822;23.564;2024-02-26T01:05:35;53.77;;;18.37;;
10144;SDS011;5113;41.822;23.564;2024-02-26T01:08:42;38.87;;;15.57;;
10144;SDS011;5113;41.822;23.564;2024-02-26T01:11:49;45.73;;;18.17;;
10144;SDS011;5113;41.822;23.564;2024-02-26T01:14:56;16.57;;;9.20;;
10144;SDS011;5113;41.822;23.564;2024-02-26T01:18:05;21.23;;;10.87;;
10144;SDS011;5113;41.822;23.564;2024-02-26T01:21:12;21.87;;;11.23;;
10144;SDS011;5113;41.822;23.564;2024-02-26T01:24:19;11.00;;;8.43;;
10144;SDS011;5113;41.822;23.564;2024-02-26T01:27:26;16.37;;;9.97;;
10144;SDS011;5113;41.822;23.564;2024-02-26T01:30:33;9.70;;;6.60;;
10144;SDS011;5113;41.822;23.564;2024-02-26T01:33:41;10.27;;;6.37;;
10144;SDS011;5113;41.822;23.564;2024-02-26T01:36:48;8.93;;;6.23;;
10144;SDS011;5113;41.822;23.564;2024-02-26T01:39:56;7.70;;;5.17;;
10144;SDS011;5113;41.822;23.564;2024-02-26T01:43:03;10.97;;;5.13;;
10144;SDS011;5113;41.822;23.564;2024-02-26T01:46:10;8.47;;;6.23;;
10144;SDS011;5113;41.822;23.564;2024-02-26T01:49:21;10.80;;;7.27;;
10144;SDS011;5113;41.822;23.564;2024-02-26T01:52:29;9.17;;;7.50;;
10144;SDS011;5113;41.822;23.564;2024-02-26T01:55:37;9.33;;;7.40;;
10144;SDS011;5113;41.822;23.564;2024-02-26T01:58:43;8.10;;;7.00;;
10144;SDS011;5113;41.822;23.564;2024-02-26T02:01:52;10.97;;;6.03;;
10144;SDS011;5113;41.822;23.564;2024-02-26T02:05:03;7.73;;;5.67;;
10144;SDS011;5113;41.822;23.564;2024-02-26T02:08:10;10.03;;;5.67;;
10144;SDS011;5113;41.822;23.564;2024-02-26T02:11:17;6.23;;;5.53;;
10144;SDS011;5113;41.822;23.564;2024-02-26T02:14:24;12.40;;;6.53;;
10144;SDS011;5113;41.822;23.564;2024-02-26T02:17:32;11.60;;;6.93;;
10144;SDS011;5113;41.822;23.564;2024-02-26T02:20:40;7.13;;;5.77;;
10144;SDS011;5113;41.822;23.564;2024-02-26T02:23:47;9.63;;;6.30;;
10144;SDS011;5113;41.822;23.564;2024-02-26T02:26:54;13.00;;;6.43;;
10144;SDS011;5113;41.822;23.564;2024-02-26T02:30:01;10.80;;;6.10;;
10144;SDS011;5113;41.822;23.564;2024-02-26T02:33:10;10.03;;;6.60;;
10144;SDS011;5113;41.822;23.564;2024-02-26T02:36:19;5.77;;;5.17;;
10144;SDS011;5113;41.822;23.564;2024-02-26T02:39:26;17.87;;;6.70;;
10144;SDS011;5113;41.822;23.564;2024-02-26T02:42:33;8.33;;;5.30;;
10144;SDS011;5113;41.822;23.564;2024-02-26T02:45:39;8.17;;;6.30;;
10144;SDS011;5113;41.822;23.564;2024-02-26T02:48:46;9.80;;;5.20;;
10144;SDS011;5113;41.822;23.564;2024-02-26T02:51:54;7.47;;;5.60;;
10144;SDS011;5113;41.822;23.564;2024-02-26T02:55:02;7.27;;;5.73;;
10144;SDS011;5113;41.822;23.564;2024-02-26T02:58:09;6.93;;;4.90;;
10144;SDS011;5113;41.822;23.564;2024-02-26T03:01:16;12.23;;;4.80;;
10144;SDS011;5113;41.822;23.564;2024-02-26T03:04:22;10.03;;;6.33;;
10144;SDS011;5113;41.822;23.564;2024-02-26T03:07:31;10.13;;;6.10;;
10144;SDS011;5113;41.822;23.564;2024-02-26T03:10:37;12.27;;;5.80;;
10144;SDS011;5113;41.822;23.564;2024-02-26T03:13:44;8.33;;;4.80;;
10144;SDS011;5113;41.822;23.564;2024-02-26T03:16:53;9.57;;;6.57;;
10144;SDS011;5113;41.822;23.564;2024-02-26T03:20:00;10.93;;;7.23;;
10144;SDS011;5113;41.822;23.564;2024-02-26T03:23:09;10.83;;;6.60;;
10144;SDS011;5113;41.822;23.564;2024-02-26T03:26:19;7.93;;;6.03;;
10144;SDS011;5113;41.822;23.564;2024-02-26T03:29:26;9.27;;;7.23;;
10144;SDS011;5113;41.822;23.564;2024-02-26T03:32:33;17.43;;;7.87;;
10144;SDS011;5113;41.822;23.564;2024-02-26T03:35:40;13.27;;;8.20;;
10144;SDS011;5113;41.822;23.564;2024-02-26T03:42:12;10.20;;;7.53;;
10144;SDS011;5113;41.822;23.564;2024-02-26T03:45:21;12.20;;;8.63;;
10144;SDS011;5113;41.822;23.564;2024-02-26T03:48:27;11.33;;;8.73;;
10144;SDS011;5113;41.822;23.564;2024-02-26T03:51:34;9.80;;;7.93;;
10144;SDS011;5113;41.822;23.564;2024-02-26T03:54:42;11.13;;;7.03;;
10144;SDS011;5113;41.822;23.564;2024-02-26T03:57:49;10.83;;;7.50;;
10144;SDS011;5113;41.822;23.564;2024-02-26T04:00:56;6.17;;;5.57;;
10144;SDS011;5113;41.822;23.564;2024-02-26T04:04:03;5.93;;;4.97;;
10144;SDS011;5113;41.822;23.564;2024-02-26T04:07:10;4.93;;;4.43;;
10144;SDS011;5113;41.822;23.564;2024-02-26T04:10:19;20.93;;;11.60;;
10144;SDS011;5113;41.822;23.564;2024-02-26T04:13:27;14.97;;;10.30;;
10144;SDS011;5113;41.822;23.564;2024-02-26T04:16:33;15.77;;;12.07;;
10144;SDS011;5113;41.822;23.564;2024-02-26T04:19:40;17.80;;;12.90;;
10144;SDS011;5113;41.822;23.564;2024-02-26T04:22:47;23.80;;;14.50;;
10144;SDS011;5113;41.822;23.564;2024-02-26T04:25:55;23.73;;;16.27;;
10144;SDS011;5113;41.822;23.564;2024-02-26T04:29:02;20.17;;;11.70;;
10144;SDS011;5113;41.822;23.564;2024-02-26T04:32:08;11.87;;;8.10;;
10144;SDS011;5113;41.822;23.564;2024-02-26T04:35:15;31.77;;;18.30;;
10144;SDS011;5113;41.822;23.564;2024-02-26T04:38:21;18.27;;;10.60;;
10144;SDS011;5113;41.822;23.564;2024-02-26T04:41:29;27.47;;;13.77;;
10144;SDS011;5113;41.822;23.564;2024-02-26T04:44:36;42.40;;;18.73;;
10144;SDS011;5113;41.822;23.564;2024-02-26T04:47:43;40.17;;;18.33;;
10144;SDS011;5113;41.822;23.564;2024-02-26T04:50:50;44.90;;;19.23;;
10144;SDS011;5113;41.822;23.564;2024-02-26T04:53:57;43.10;;;19.60;;
10144;SDS011;5113;41.822;23.564;2024-02-26T04:57:05;39.90;;;18.20;;
10144;SDS011;5113;41.822;23.564;2024-02-26T05:00:15;26.37;;;14.47;;
10144;SDS011;5113;41.822;23.564;2024-02-26T05:03:22;22.70;;;13.70;;
10144;SDS011;5113;41.822;23.564;2024-02-26T05:06:29;23.07;;;14.37;;
10144;SDS011;5113;41.822;23.564;2024-02-26T05:09:37;19.30;;;13.23;;
10144;SDS011;5113;41.822;23.564;2024-02-26T05:12:45;20.60;;;14.10;;
10144;SDS011;5113;41.822;23.564;2024-02-26T05:15:52;27.57;;;18.27;;
10144;SDS011;5113;41.822;23.564;2024-02-26T05:18:59;28.27;;;17.43;;
10144;SDS011;5113;41.822;23.564;2024-02-26T05:22:06;17.83;;;11.70;;
10144;SDS011;5113;41.822;23.564;2024-02-26T05:25:14;18.00;;;11.03;;
10144;SDS011;5113;41.822;23.564;2024-02-26T05:28:23;16.20;;;10.97;;
10144;SDS011;5113;41.822;23.564;2024-02-26T05:31:30;23.23;;;13.67;;
10144;SDS011;5113;41.822;23.564;2024-02-26T05:34:36;17.23;;;12.13;;
10144;SDS011;5113;41.822;23.564;2024-02-26T05:37:43;12.93;;;8.03;;
10144;SDS011;5113;41.822;23.564;2024-02-26T05:40:50;11.93;;;9.47;;
10144;SDS011;5113;41.822;23.564;2024-02-26T05:43:58;17.63;;;11.37;;
10144;SDS011;5113;41.822;23.564;2024-02-26T05:47:05;21.87;;;14.27;;
10144;SDS011;5113;41.822;23.564;2024-02-26T05:50:13;21.37;;;12.63;;
10144;SDS011;5113;41.822;23.564;2024-02-26T05:53:20;23.03;;;14.27;;
10144;SDS011;5113;41.822;23.564;2024-02-26T05:56:27;19.97;;;10.10;;
10144;SDS011;5113;41.822;23.564;2024-02-26T05:59:35;155.23;;;86.53;;
10144;SDS011;5113;41.822;23.564;2024-02-26T06:02:42;48.40;;;30.17;;
10144;SDS011;5113;41.822;23.564;2024-02-26T06:05:49;31.33;;;18.77;;
10144;SDS011;5113;41.822;23.564;2024-02-26T06:08:56;34.20;;;20.70;;
10144;SDS011;5113;41.822;23.564;2024-02-26T06:12:03;20.77;;;14.67;;
10144;SDS011;5113;41.822;23.564;2024-02-26T06:15:12;34.13;;;18.87;;
10144;SDS011;5113;41.822;23.564;2024-02-26T06:18:19;63.43;;;30.17;;
10144;SDS011;5113;41.822;23.564;2024-02-26T06:21:26;67.03;;;36.27;;
10144;SDS011;5113;41.822;23.564;2024-02-26T06:24:32;33.53;;;18.70;;
10144;SDS011;5113;41.822;23.564;2024-02-26T06:27:39;29.13;;;18.87;;
10144;SDS011;5113;41.822;23.564;2024-02-26T06:30:47;29.83;;;18.07;;
10144;SDS011;5113;41.822;23.564;2024-02-26T06:33:55;27.47;;;16.87;;
10144;SDS011;5113;41.822;23.564;2024-02-26T06:37:02;23.87;;;16.53;;
10144;SDS011;5113;41.822;23.564;2024-02-26T06:40:09;26.70;;;19.57;;
10144;SDS011;5113;41.822;23.564;2024-02-26T06:43:16;31.10;;;19.27;;
10144;SDS011;5113;41.822;23.564;2024-02-26T06:46:24;19.97;;;12.57;;
10144;SDS011;5113;41.822;23.564;2024-02-26T06:49:31;33.03;;;19.23;;
10144;SDS011;5113;41.822;23.564;2024-02-26T06:52:38;32.23;;;19.17;;
10144;SDS011;5113;41.822;23.564;2024-02-26T06:56:03;47.17;;;31.30;;
10144;SDS011;5113;41.822;23.564;2024-02-26T06:59:10;54.37;;;34.23;;
10144;SDS011;5113;41.822;23.564;2024-02-26T07:02:19;60.10;;;36.47;;
10144;SDS011;5113;41.822;23.564;2024-02-26T07:05:27;74.10;;;40.13;;
10144;SDS011;5113;41.822;23.564;2024-02-26T07:08:34;78.10;;;41.67;;
10144;SDS011;5113;41.822;23.564;2024-02-26T07:11:40;70.30;;;40.53;;
10144;SDS011;5113;41.822;23.564;2024-02-26T07:14:48;57.63;;;36.10;;
10144;SDS011;5113;41.822;23.564;2024-02-26T07:17:58;55.10;;;31.03;;
10144;SDS011;5113;41.822;23.564;2024-02-26T07:21:08;66.40;;;32.00;;
10144;SDS011;5113;41.822;23.564;2024-02-26T07:24:15;80.63;;;37.17;;
10144;SDS011;5113;41.822;23.564;2024-02-26T07:27:21;82.77;;;39.93;;
10144;SDS011;5113;41.822;23.564;2024-02-26T07:30:29;76.37;;;39.27;;
10144;SDS011;5113;41.822;23.564;2024-02-26T07:33:37;83.77;;;43.87;;
10144;SDS011;5113;41.822;23.564;2024-02-26T07:36:44;91.97;;;53.23;;
10144;SDS011;5113;41.822;23.564;2024-02-26T07:39:51;76.40;;;44.20;;
10144;SDS011;5113;41.822;23.564;2024-02-26T07:42:58;67.10;;;41.83;;
10144;SDS011;5113;41.822;23.564;2024-02-26T07:46:05;58.10;;;33.83;;
10144;SDS011;5113;41.822;23.564;2024-02-26T07:49:13;61.17;;;34.83;;
10144;SDS011;5113;41.822;23.564;2024-02-26T07:52:20;44.00;;;24.50;;
10144;SDS011;5113;41.822;23.564;2024-02-26T07:55:27;35.87;;;22.30;;
10144;SDS011;5113;41.822;23.564;2024-02-26T07:58:34;29.07;;;17.67;;
10144;SDS011;5113;41.822;23.564;2024-02-26T08:01:41;28.50;;;17.73;;
10144;SDS011;5113;41.822;23.564;2024-02-26T08:04:53;22.80;;;14.90;;
10144;SDS011;5113;41.822;23.564;2024-02-26T08:08:00;19.33;;;11.37;;
10144;SDS011;5113;41.822;23.564;2024-02-26T08:11:06;19.60;;;12.60;;
10144;SDS011;5113;41.822;23.564;2024-02-26T08:14:13;32.17;;;19.37;;
10144;SDS011;5113;41.822;23.564;2024-02-26T08:17:20;30.07;;;17.10;;
10144;SDS011;5113;41.822;23.564;2024-02-26T08:20:29;50.00;;;26.50;;
10144;SDS011;5113;41.822;23.564;2024-02-26T08:23:35;48.23;;;29.23;;
10144;SDS011;5113;41.822;23.564;2024-02-26T08:26:42;55.13;;;30.60;;
10144;SDS011;5113;41.822;23.564;2024-02-26T08:29:49;61.93;;;35.13;;
10144;SDS011;5113;41.822;23.564;2024-02-26T08:32:57;51.23;;;31.03;;
10144;SDS011;5113;41.822;23.564;2024-02-26T08:36:06;55.30;;;30.77;;
10144;SDS011;5113;41.822;23.564;2024-02-26T08:39:13;50.80;;;29.23;;
10144;SDS011;5113;41.822;23.564;2024-02-26T08:42:22;43.67;;;26.07;;
10144;SDS011;5113;41.822;23.564;2024-02-26T08:45:29;34.90;;;19.37;;
10144;SDS011;5113;41.822;23.564;2024-02-26T08:48:36;22.80;;;15.27;;
10144;SDS011;5113;41.822;23.564;2024-02-26T08:51:45;29.03;;;16.17;;
10144;SDS011;5113;41.822;23.564;2024-02-26T08:54:51;17.07;;;10.83;;
10144;SDS011;5113;41.822;23.564;2024-02-26T08:57:59;13.17;;;9.13;;
10144;SDS011;5113;41.822;23.564;2024-02-26T09:01:06;12.03;;;7.77;;
10144;SDS011;5113;41.822;23.564;2024-02-26T09:04:12;7.37;;;6.43;;
10144;SDS011;5113;41.822;23.564;2024-02-26T09:07:20;8.37;;;6.47;;
10144;SDS011;5113;41.822;23.564;2024-02-26T09:10:28;11.90;;;7.17;;
10144;SDS011;5113;41.822;23.564;2024-02-26T09:13:34;22.93;;;13.60;;
10144;SDS011;5113;41.822;23.564;2024-02-26T09:16:41;22.17;;;12.20;;
10144;SDS011;5113;41.822;23.564;2024-02-26T09:19:48;24.67;;;14.30;;
10144;SDS011;5113;41.822;23.564;2024-02-26T09:22:56;28.97;;;17.97;;
10144;SDS011;5113;41.822;23.564;2024-02-26T09:26:05;32.73;;;18.77;;
10144;SDS011;5113;41.822;23.564;2024-02-26T09:29:12;40.33;;;22.03;;
10144;SDS011;5113;41.822;23.564;2024-02-26T09:32:19;29.53;;;17.13;;
10144;SDS011;5113;41.822;23.564;2024-02-26T09:35:26;36.67;;;20.60;;
10144;SDS011;5113;41.822;23.564;2024-02-26T09:38:35;32.90;;;20.27;;
10144;SDS011;5113;41.822;23.564;2024-02-26T09:42:00;34.97;;;19.70;;
10144;SDS011;5113;41.822;23.564;2024-02-26T09:45:11;33.90;;;18.60;;
10144;SDS011;5113;41.822;23.564;2024-02-26T09:48:24;24.67;;;16.27;;
10144;SDS011;5113;41.822;23.564;2024-02-26T09:51:31;20.07;;;12.60;;
10144;SDS011;5113;41.822;23.564;2024-02-26T09:54:39;18.27;;;10.27;;
10144;SDS011;5113;41.822;23.564;2024-02-26T09:57:47;10.97;;;8.73;;
10144;SDS011;5113;41.822;23.564;2024-02-26T10:00:58;13.87;;;8.90;;
10144;SDS011;5113;41.822;23.564;2024-02-26T10:04:09;12.90;;;8.20;;
10144;SDS011;5113;41.822;23.564;2024-02-26T10:07:17;15.43;;;9.17;;
10144;SDS011;5113;41.822;23.564;2024-02-26T10:10:27;11.03;;;6.03;;
10144;SDS011;5113;41.822;23.564;2024-02-26T10:13:34;6.90;;;4.67;;
10144;SDS011;5113;41.822;23.564;2024-02-26T10:16:41;7.87;;;5.67;;
10144;SDS011;5113;41.822;23.564;2024-02-26T10:19:48;8.90;;;6.03;;
10144;SDS011;5113;41.822;23.564;2024-02-26T10:22:56;6.93;;;5.53;;
10144;SDS011;5113;41.822;23.564;2024-02-26T10:26:04;5.73;;;4.67;;
10144;SDS011;5113;41.822;23.564;2024-02-26T10:29:11;4.37;;;3.93;;
10144;SDS011;5113;41.822;23.564;2024-02-26T10:32:18;18.23;;;12.83;;
10144;SDS011;5113;41.822;23.564;2024-02-26T10:35:24;9.87;;;6.37;;
10144;SDS011;5113;41.822;23.564;2024-02-26T10:38:34;8.47;;;6.03;;
10144;SDS011;5113;41.822;23.564;2024-02-26T10:41:43;8.17;;;4.07;;
10144;SDS011;5113;41.822;23.564;2024-02-26T10:44:50;11.07;;;5.77;;
10144;SDS011;5113;41.822;23.564;2024-02-26T10:47:57;4.70;;;4.17;;
10144;SDS011;5113;41.822;23.564;2024-02-26T10:51:04;6.33;;;4.80;;
10144;SDS011;5113;41.822;23.564;2024-02-26T10:54:12;7.47;;;4.30;;
10144;SDS011;5113;41.822;23.564;2024-02-26T10:57:22;6.17;;;4.50;;
10144;SDS011;5113;41.822;23.564;2024-02-26T11:00:32;11.77;;;5.60;;
10144;SDS011;5113;41.822;23.564;2024-02-26T11:03:39;5.70;;;3.90;;
10144;SDS011;5113;41.822;23.564;2024-02-26T11:06:47;6.90;;;4.77;;
10144;SDS011;5113;41.822;23.564;2024-02-26T11:09:56;7.33;;;4.93;;
10144;SDS011;5113;41.822;23.564;2024-02-26T11:13:06;6.63;;;5.43;;
10144;SDS011;5113;41.822;23.564;2024-02-26T11:16:18;5.47;;;4.83;;
10144;SDS011;5113;41.822;23.564;2024-02-26T11:19:25;4.40;;;3.57;;
10144;SDS011;5113;41.822;23.564;2024-02-26T11:22:34;5.63;;;3.60;;
10144;SDS011;5113;41.822;23.564;2024-02-26T11:25:41;8.50;;;5.47;;
10144;SDS011;5113;41.822;23.564;2024-02-26T11:28:49;6.97;;;4.40;;
10144;SDS011;5113;41.822;23.564;2024-02-26T11:31:58;3.57;;;2.83;;
10144;SDS011;5113;41.822;23.564;2024-02-26T11:35:06;7.97;;;5.37;;
10144;SDS011;5113;41.822;23.564;2024-02-26T11:38:19;8.00;;;5.37;;
10144;SDS011;5113;41.822;23.564;2024-02-26T11:41:27;11.30;;;5.63;;
10144;SDS011;5113;41.822;23.564;2024-02-26T11:44:36;9.93;;;5.33;;
10144;SDS011;5113;41.822;23.564;2024-02-26T11:47:43;7.37;;;5.10;;
10144;SDS011;5113;41.822;23.564;2024-02-26T11:51:02;5.00;;;3.17;;
10144;SDS011;5113;41.822;23.564;2024-02-26T11:54:11;3.97;;;3.23;;
10144;SDS011;5113;41.822;23.564;2024-02-26T11:57:24;10.13;;;4.30;;
10144;SDS011;5113;41.822;23.564;2024-02-26T12:00:35;3.97;;;3.23;;
10144;SDS011;5113;41.822;23.564;2024-02-26T12:03:42;3.47;;;2.83;;
10144;SDS011;5113;41.822;23.564;2024-02-26T12:06:50;6.23;;;3.67;;
10144;SDS011;5113;41.822;23.564;2024-02-26T12:10:13;6.27;;;3.73;;
10144;SDS011;5113;41.822;23.564;2024-02-26T12:13:22;12.57;;;6.37;;
10144;SDS011;5113;41.822;23.564;2024-02-26T12:16:38;4.97;;;4.10;;
10144;SDS011;5113;41.822;23.564;2024-02-26T12:19:47;5.70;;;2.97;;
10144;SDS011;5113;41.822;23.564;2024-02-26T12:22:55;7.83;;;3.00;;
10144;SDS011;5113;41.822;23.564;2024-02-26T12:26:02;4.00;;;3.60;;
10144;SDS011;5113;41.822;23.564;2024-02-26T12:29:13;4.37;;;3.40;;
10144;SDS011;5113;41.822;23.564;2024-02-26T12:32:21;4.87;;;4.17;;
10144;SDS011;5113;41.822;23.564;2024-02-26T12:35:29;5.53;;;3.80;;
10144;SDS011;5113;41.822;23.564;2024-02-26T12:38:37;7.63;;;3.17;;
10144;SDS011;5113;41.822;23.564;2024-02-26T12:41:44;3.60;;;3.23;;
10144;SDS011;5113;41.822;23.564;2024-02-26T12:44:54;5.77;;;4.07;;
10144;SDS011;5113;41.822;23.564;2024-02-26T12:48:02;3.33;;;3.03;;
10144;SDS011;5113;41.822;23.564;2024-02-26T12:51:10;7.23;;;2.90;;
10144;SDS011;5113;41.822;23.564;2024-02-26T12:54:18;3.97;;;3.50;;
10144;SDS011;5113;41.822;23.564;2024-02-26T12:57:25;9.20;;;6.20;;
10144;SDS011;5113;41.822;23.564;2024-02-26T13:00:34;7.53;;;3.93;;
10144;SDS011;5113;41.822;23.564;2024-02-26T13:03:43;3.57;;;2.93;;
10144;SDS011;5113;41.822;23.564;2024-02-26T13:06:50;4.30;;;3.90;;
10144;SDS011;5113;41.822;23.564;2024-02-26T13:09:57;5.17;;;3.40;;
10144;SDS011;5113;41.822;23.564;2024-02-26T13:13:05;4.27;;;3.30;;
10144;SDS011;5113;41.822;23.564;2024-02-26T13:16:13;4.87;;;3.00;;
10144;SDS011;5113;41.822;23.564;2024-02-26T13:19:23;3.70;;;3.33;;
10144;SDS011;5113;41.822;23.564;2024-02-26T13:22:30;4.47;;;3.73;;
10144;SDS011;5113;41.822;23.564;2024-02-26T13:25:38;7.97;;;3.40;;
10144;SDS011;5113;41.822;23.564;2024-02-26T13:28:59;6.50;;;3.87;;
10144;SDS011;5113;41.822;23.564;2024-02-26T13:32:08;4.83;;;3.60;;
10144;SDS011;5113;41.822;23.564;2024-02-26T13:35:19;5.23;;;4.17;;
10144;SDS011;5113;41.822;23.564;2024-02-26T13:38:27;7.30;;;3.50;;
10144;SDS011;5113;41.822;23.564;2024-02-26T13:41:34;5.00;;;3.67;;
10144;SDS011;5113;41.822;23.564;2024-02-26T13:44:42;4.50;;;3.53;;
10144;SDS011;5113;41.822;23.564;2024-02-26T13:47:48;6.03;;;4.50;;
10144;SDS011;5113;41.822;23.564;2024-02-26T13:50:58;7.20;;;4.67;;
10144;SDS011;5113;41.822;23.564;2024-02-26T13:54:04;8.10;;;5.37;;
10144;SDS011;5113;41.822;23.564;2024-02-26T13:57:12;6.93;;;4.77;;
10144;SDS011;5113;41.822;23.564;2024-02-26T14:00:18;4.83;;;3.13;;
10144;SDS011;5113;41.822;23.564;2024-02-26T14:03:25;7.00;;;3.70;;
10144;SDS011;5113;41.822;23.564;2024-02-26T14:06:33;8.13;;;5.30;;
10144;SDS011;5113;41.822;23.564;2024-02-26T14:09:41;7.57;;;4.80;;
10144;SDS011;5113;41.822;23.564;2024-02-26T14:12:53;9.20;;;4.93;;
10144;SDS011;5113;41.822;23.564;2024-02-26T14:16:01;26.67;;;15.67;;
10144;SDS011;5113;41.822;23.564;2024-02-26T14:19:08;11.50;;;6.13;;
10144;SDS011;5113;41.822;23.564;2024-02-26T14:22:20;8.20;;;5.07;;
10144;SDS011;5113;41.822;23.564;2024-02-26T14:25:27;6.43;;;4.77;;
10144;SDS011;5113;41.822;23.564;2024-02-26T14:28:35;6.60;;;4.37;;
10144;SDS011;5113;41.822;23.564;2024-02-26T14:31:42;6.97;;;5.03;;
10144;SDS011;5113;41.822;23.564;2024-02-26T14:34:51;7.10;;;4.00;;
10144;SDS011;5113;41.822;23.564;2024-02-26T14:38:00;6.00;;;4.90;;
10144;SDS011;5113;41.822;23.564;2024-02-26T14:41:07;20.10;;;9.57;;
10144;SDS011;5113;41.822;23.564;2024-02-26T14:44:15;15.93;;;7.87;;
10144;SDS011;5113;41.822;23.564;2024-02-26T14:47:22;76.57;;;34.33;;
10144;SDS011;5113;41.822;23.564;2024-02-26T14:50:29;28.37;;;13.67;;
10144;SDS011;5113;41.822;23.564;2024-02-26T14:53:37;15.90;;;9.33;;
10144;SDS011;5113;41.822;23.564;2024-02-26T14:56:44;12.17;;;8.17;;
10144;SDS011;5113;41.822;23.564;2024-02-26T14:59:53;18.53;;;12.77;;
10144;SDS011;5113;41.822;23.564;2024-02-26T15:02:59;14.77;;;6.23;;
10144;SDS011;5113;41.822;23.564;2024-02-26T15:06:07;9.27;;;6.57;;
10144;SDS011;5113;41.822;23.564;2024-02-26T15:09:16;23.80;;;14.13;;
10144;SDS011;5113;41.822;23.564;2024-02-26T15:12:24;29.47;;;17.73;;
10144;SDS011;5113;41.822;23.564;2024-02-26T15:15:30;18.10;;;10.13;;
10144;SDS011;5113;41.822;23.564;2024-02-26T15:18:37;12.27;;;6.83;;
10144;SDS011;5113;41.822;23.564;2024-02-26T15:21:44;12.90;;;7.47;;
10144;SDS011;5113;41.822;23.564;2024-02-26T15:24:53;23.77;;;11.97;;
10144;SDS011;5113;41.822;23.564;2024-02-26T15:28:00;24.23;;;13.47;;
10144;SDS011;5113;41.822;23.564;2024-02-26T15:31:07;25.17;;;11.03;;
10144;SDS011;5113;41.822;23.564;2024-02-26T15:34:18;18.57;;;9.50;;
10144;SDS011;5113;41.822;23.564;2024-02-26T15:37:26;10.70;;;8.40;;
10144;SDS011;5113;41.822;23.564;2024-02-26T15:40:34;15.67;;;9.83;;
10144;SDS011;5113;41.822;23.564;2024-02-26T15:43:40;17.97;;;11.03;;
10144;SDS011;5113;41.822;23.564;2024-02-26T15:46:47;23.63;;;11.07;;
10144;SDS011;5113;41.822;23.564;2024-02-26T15:49:55;21.83;;;11.00;;
10144;SDS011;5113;41.822;23.564;2024-02-26T15:53:02;20.10;;;11.57;;
10144;SDS011;5113;41.822;23.564;2024-02-26T15:56:11;23.07;;;13.43;;
10144;SDS011;5113;41.822;23.564;2024-02-26T15:59:19;34.83;;;15.00;;
10144;SDS011;5113;41.822;23.564;2024-02-26T16:02:26;19.40;;;10.80;;
10144;SDS011;5113;41.822;23.564;2024-02-26T16:05:33;21.80;;;13.40;;
10144;SDS011;5113;41.822;23.564;2024-02-26T16:08:41;17.47;;;12.00;;
10144;SDS011;5113;41.822;23.564;2024-02-26T16:11:48;14.30;;;10.77;;
10144;SDS011;5113;41.822;23.564;2024-02-26T16:14:56;27.80;;;17.83;;
10144;SDS011;5113;41.822;23.564;2024-02-26T16:18:03;56.60;;;34.83;;
10144;SDS011;5113;41.822;23.564;2024-02-26T16:21:10;32.00;;;19.97;;
10144;SDS011;5113;41.822;23.564;2024-02-26T16:24:18;29.90;;;18.37;;
10144;SDS011;5113;41.822;23.564;2024-02-26T16:27:26;29.73;;;17.47;;
10144;SDS011;5113;41.822;23.564;2024-02-26T16:30:33;35.97;;;16.67;;
10144;SDS011;5113;41.822;23.564;2024-02-26T16:33:40;36.87;;;18.70;;
10144;SDS011;5113;41.822;23.564;2024-02-26T16:36:47;39.90;;;22.00;;
10144;SDS011;5113;41.822;23.564;2024-02-26T16:39:55;40.60;;;20.03;;
10144;SDS011;5113;41.822;23.564;2024-02-26T16:43:05;85.40;;;35.53;;
10144;SDS011;5113;41.822;23.564;2024-02-26T16:46:12;101.93;;;40.83;;
10144;SDS011;5113;41.822;23.564;2024-02-26T16:49:21;142.30;;;54.70;;
10144;SDS011;5113;41.822;23.564;2024-02-26T16:52:28;95.83;;;37.33;;
10144;SDS011;5113;41.822;23.564;2024-02-26T16:55:34;79.40;;;30.77;;
10144;SDS011;5113;41.822;23.564;2024-02-26T16:58:43;53.60;;;23.20;;
10144;SDS011;5113;41.822;23.564;2024-02-26T17:01:49;46.60;;;19.83;;
10144;SDS011;5113;41.822;23.564;2024-02-26T17:04:56;46.13;;;20.00;;
10144;SDS011;5113;41.822;23.564;2024-02-26T17:08:03;86.37;;;35.30;;
10144;SDS011;5113;41.822;23.564;2024-02-26T17:11:13;87.03;;;35.20;;
10144;SDS011;5113;41.822;23.564;2024-02-26T17:14:22;92.60;;;39.27;;
10144;SDS011;5113;41.822;23.564;2024-02-26T17:17:28;91.80;;;42.50;;
10144;SDS011;5113;41.822;23.564;2024-02-26T17:20:36;90.13;;;47.70;;
10144;SDS011;5113;41.822;23.564;2024-02-26T17:23:43;82.27;;;42.27;;
10144;SDS011;5113;41.822;23.564;2024-02-26T17:26:49;81.13;;;38.20;;
10144;SDS011;5113;41.822;23.564;2024-02-26T17:29:57;76.10;;;33.60;;
10144;SDS011;5113;41.822;23.564;2024-02-26T17:33:04;43.07;;;23.73;;
10144;SDS011;5113;41.822;23.564;2024-02-26T17:36:11;44.87;;;25.20;;
10144;SDS011;5113;41.822;23.564;2024-02-26T17:39:17;39.90;;;23.40;;
10144;SDS011;5113;41.822;23.564;2024-02-26T17:42:25;46.03;;;29.33;;
10144;SDS011;5113;41.822;23.564;2024-02-26T17:45:34;44.53;;;27.43;;
10144;SDS011;5113;41.822;23.564;2024-02-26T17:48:43;33.07;;;21.47;;
10144;SDS011;5113;41.822;23.564;2024-02-26T17:51:50;35.17;;;21.60;;
10144;SDS011;5113;41.822;23.564;2024-02-26T17:54:57;24.17;;;15.90;;
10144;SDS011;5113;41.822;23.564;2024-02-26T17:58:03;56.17;;;29.20;;
10144;SDS011;5113;41.822;23.564;2024-02-26T18:01:12;55.13;;;28.80;;
10144;SDS011;5113;41.822;23.564;2024-02-26T18:04:19;69.77;;;32.97;;
10144;SDS011;5113;41.822;23.564;2024-02-26T18:07:25;74.13;;;36.00;;
10144;SDS011;5113;41.822;23.564;2024-02-26T18:10:32;48.53;;;24.67;;
10144;SDS011;5113;41.822;23.564;2024-02-26T18:13:39;48.50;;;24.13;;
10144;SDS011;5113;41.822;23.564;2024-02-26T18:16:51;33.07;;;18.27;;
10144;SDS011;5113;41.822;23.564;2024-02-26T18:19:57;17.43;;;8.87;;
10144;SDS011;5113;41.822;23.564;2024-02-26T18:23:03;21.10;;;12.37;;
10144;SDS011;5113;41.822;23.564;2024-02-26T18:26:10;31.80;;;21.93;;
10144;SDS011;5113;41.822;23.564;2024-02-26T18:29:23;36.77;;;18.40;;
10144;SDS011;5113;41.822;23.564;2024-02-26T18:32:32;28.90;;;17.47;;